sensor_id;sensor_type;location;lat;lon;timestamp;P1;durP1;ratioP1;P2;durP2;ratioP2
14516;SDS011;7344;50.864;4.362;2022-10-15T00:01:39;39.27;;;31.17;;
14516;SDS011;7344;50.864;4.362;2022-10-15T00:04:04;38.03;;;30.43;;
14516;SDS011;7344;50.864;4.362;2022-10-15T00:06:30;35.97;;;27.60;;
14516;SDS011;7344;50.864;4.362;2022-10-15T00:08:56;36.73;;;29.57;;
14516;SDS011;7344;50.864;4.362;2022-10-15T00:11:22;38.80;;;29.13;;
14516;SDS011;7344;50.864;4.362;2022-10-15T00:13:56;34.80;;;27.37;;
14516;SDS011;7344;50.864;4.362;2022-10-15T00:16:24;32.47;;;25.70;;
14516;SDS011;7344;50.864;4.362;2022-10-15T00:18:53;30.83;;;27.00;;
14516;SDS011;7344;50.864;4.362;2022-10-15T00:21:21;34.50;;;27.23;;
14516;SDS011;7344;50.864;4.362;2022-10-15T00:23:46;32.53;;;25.63;;
14516;SDS011;7344;50.864;4.362;2022-10-15T00:26:14;30.80;;;26.67;;
14516;SDS011;7344;50.864;4.362;2022-10-15T00:28:44;33.57;;;25.93;;
14516;SDS011;7344;50.864;4.362;2022-10-15T00:31:14;28.07;;;24.73;;
14516;SDS011;7344;50.864;4.362;2022-10-15T00:33:41;28.90;;;25.27;;
14516;SDS011;7344;50.864;4.362;2022-10-15T00:36:09;30.00;;;24.43;;
14516;SDS011;7344;50.864;4.362;2022-10-15T00:38:40;29.60;;;24.20;;
14516;SDS011;7344;50.864;4.362;2022-10-15T00:41:06;28.33;;;25.03;;
14516;SDS011;7344;50.864;4.362;2022-10-15T00:43:38;28.93;;;23.53;;
14516;SDS011;7344;50.864;4.362;2022-10-15T00:46:24;30.33;;;23.87;;
14516;SDS011;7344;50.864;4.362;2022-10-15T00:52:04;26.13;;;22.70;;
14516;SDS011;7344;50.864;4.362;2022-10-15T00:54:39;24.87;;;21.83;;
14516;SDS011;7344;50.864;4.362;2022-10-15T00:57:07;27.83;;;23.60;;
14516;SDS011;7344;50.864;4.362;2022-10-15T00:59:34;25.33;;;22.43;;
14516;SDS011;7344;50.864;4.362;2022-10-15T01:02:02;24.40;;;21.80;;
14516;SDS011;7344;50.864;4.362;2022-10-15T01:04:29;26.67;;;21.43;;
14516;SDS011;7344;50.864;4.362;2022-10-15T01:06:55;25.87;;;21.40;;
14516;SDS011;7344;50.864;4.362;2022-10-15T01:09:21;24.63;;;20.73;;
14516;SDS011;7344;50.864;4.362;2022-10-15T01:11:47;24.27;;;20.77;;
14516;SDS011;7344;50.864;4.362;2022-10-15T01:17:18;25.00;;;21.37;;
14516;SDS011;7344;50.864;4.362;2022-10-15T01:28:24;24.80;;;21.30;;
14516;SDS011;7344;50.864;4.362;2022-10-15T01:30:41;26.77;;;21.67;;
14516;SDS011;7344;50.864;4.362;2022-10-15T01:38:50;24.23;;;20.87;;
14516;SDS011;7344;50.864;4.362;2022-10-15T01:43:59;24.60;;;21.87;;
14516;SDS011;7344;50.864;4.362;2022-10-15T01:46:52;26.20;;;21.97;;
14516;SDS011;7344;50.864;4.362;2022-10-15T01:49:20;25.90;;;21.90;;
14516;SDS011;7344;50.864;4.362;2022-10-15T01:51:50;26.53;;;22.00;;
14516;SDS011;7344;50.864;4.362;2022-10-15T01:54:18;25.30;;;21.00;;
14516;SDS011;7344;50.864;4.362;2022-10-15T01:56:45;27.87;;;22.10;;
14516;SDS011;7344;50.864;4.362;2022-10-15T01:59:14;26.17;;;22.13;;
14516;SDS011;7344;50.864;4.362;2022-10-15T02:01:46;30.33;;;22.83;;
14516;SDS011;7344;50.864;4.362;2022-10-15T02:04:16;30.63;;;23.50;;
14516;SDS011;7344;50.864;4.362;2022-10-15T02:06:44;30.03;;;24.73;;
14516;SDS011;7344;50.864;4.362;2022-10-15T02:09:16;30.97;;;24.27;;
14516;SDS011;7344;50.864;4.362;2022-10-15T02:12:09;28.37;;;23.13;;
14516;SDS011;7344;50.864;4.362;2022-10-15T02:15:07;32.07;;;24.63;;
14516;SDS011;7344;50.864;4.362;2022-10-15T02:17:38;35.90;;;26.07;;
14516;SDS011;7344;50.864;4.362;2022-10-15T02:20:13;33.30;;;25.87;;
14516;SDS011;7344;50.864;4.362;2022-10-15T02:23:26;32.40;;;24.93;;
14516;SDS011;7344;50.864;4.362;2022-10-15T02:25:36;33.13;;;24.93;;
14516;SDS011;7344;50.864;4.362;2022-10-15T02:28:04;30.10;;;23.77;;
14516;SDS011;7344;50.864;4.362;2022-10-15T02:30:31;33.40;;;24.67;;
14516;SDS011;7344;50.864;4.362;2022-10-15T02:32:58;30.50;;;25.00;;
14516;SDS011;7344;50.864;4.362;2022-10-15T02:35:24;32.83;;;25.00;;
14516;SDS011;7344;50.864;4.362;2022-10-15T02:37:51;31.10;;;24.37;;
14516;SDS011;7344;50.864;4.362;2022-10-15T02:40:23;27.70;;;22.97;;
14516;SDS011;7344;50.864;4.362;2022-10-15T02:42:52;30.50;;;23.97;;
14516;SDS011;7344;50.864;4.362;2022-10-15T02:45:19;28.40;;;21.87;;
14516;SDS011;7344;50.864;4.362;2022-10-15T02:47:44;26.10;;;21.67;;
14516;SDS011;7344;50.864;4.362;2022-10-15T02:50:10;27.73;;;22.17;;
14516;SDS011;7344;50.864;4.362;2022-10-15T02:52:36;23.93;;;20.10;;
14516;SDS011;7344;50.864;4.362;2022-10-15T02:55:01;25.27;;;20.63;;
14516;SDS011;7344;50.864;4.362;2022-10-15T02:57:27;28.30;;;22.93;;
14516;SDS011;7344;50.864;4.362;2022-10-15T02:59:53;27.90;;;21.33;;
14516;SDS011;7344;50.864;4.362;2022-10-15T03:02:18;27.00;;;22.53;;
14516;SDS011;7344;50.864;4.362;2022-10-15T03:04:44;26.23;;;21.53;;
14516;SDS011;7344;50.864;4.362;2022-10-15T03:07:09;27.27;;;22.13;;
14516;SDS011;7344;50.864;4.362;2022-10-15T03:09:35;29.30;;;22.00;;
14516;SDS011;7344;50.864;4.362;2022-10-15T03:12:01;26.63;;;21.90;;
14516;SDS011;7344;50.864;4.362;2022-10-15T03:14:26;27.17;;;21.47;;
14516;SDS011;7344;50.864;4.362;2022-10-15T03:16:52;25.97;;;21.10;;
14516;SDS011;7344;50.864;4.362;2022-10-15T03:19:17;25.80;;;21.63;;
14516;SDS011;7344;50.864;4.362;2022-10-15T03:21:43;23.87;;;20.47;;
14516;SDS011;7344;50.864;4.362;2022-10-15T03:24:09;25.93;;;22.27;;
14516;SDS011;7344;50.864;4.362;2022-10-15T03:26:34;26.27;;;21.83;;
14516;SDS011;7344;50.864;4.362;2022-10-15T03:29:00;27.47;;;21.63;;
14516;SDS011;7344;50.864;4.362;2022-10-15T03:31:26;29.10;;;22.70;;
14516;SDS011;7344;50.864;4.362;2022-10-15T03:33:51;28.13;;;22.40;;
14516;SDS011;7344;50.864;4.362;2022-10-15T03:36:17;28.87;;;22.70;;
14516;SDS011;7344;50.864;4.362;2022-10-15T03:38:43;32.93;;;23.00;;
14516;SDS011;7344;50.864;4.362;2022-10-15T03:41:08;28.63;;;22.40;;
14516;SDS011;7344;50.864;4.362;2022-10-15T03:43:34;30.60;;;23.63;;
14516;SDS011;7344;50.864;4.362;2022-10-15T03:46:00;32.93;;;25.47;;
14516;SDS011;7344;50.864;4.362;2022-10-15T03:48:27;34.40;;;24.80;;
14516;SDS011;7344;50.864;4.362;2022-10-15T03:50:53;33.80;;;25.43;;
14516;SDS011;7344;50.864;4.362;2022-10-15T03:53:18;31.27;;;25.00;;
14516;SDS011;7344;50.864;4.362;2022-10-15T03:55:44;31.33;;;24.80;;
14516;SDS011;7344;50.864;4.362;2022-10-15T03:58:09;32.97;;;24.33;;
14516;SDS011;7344;50.864;4.362;2022-10-15T04:00:35;32.73;;;25.13;;
14516;SDS011;7344;50.864;4.362;2022-10-15T04:03:00;27.87;;;22.33;;
14516;SDS011;7344;50.864;4.362;2022-10-15T04:05:26;28.33;;;21.57;;
14516;SDS011;7344;50.864;4.362;2022-10-15T04:07:52;26.20;;;21.33;;
14516;SDS011;7344;50.864;4.362;2022-10-15T04:10:17;25.13;;;20.70;;
14516;SDS011;7344;50.864;4.362;2022-10-15T04:12:43;23.67;;;20.13;;
14516;SDS011;7344;50.864;4.362;2022-10-15T04:15:09;23.20;;;19.63;;
14516;SDS011;7344;50.864;4.362;2022-10-15T04:17:34;22.33;;;17.57;;
14516;SDS011;7344;50.864;4.362;2022-10-15T04:20:00;20.80;;;17.97;;
14516;SDS011;7344;50.864;4.362;2022-10-15T04:22:25;22.30;;;17.27;;
14516;SDS011;7344;50.864;4.362;2022-10-15T04:24:51;20.97;;;17.07;;
14516;SDS011;7344;50.864;4.362;2022-10-15T04:27:17;24.10;;;17.57;;
14516;SDS011;7344;50.864;4.362;2022-10-15T04:29:42;20.77;;;17.27;;
14516;SDS011;7344;50.864;4.362;2022-10-15T04:32:09;21.73;;;16.27;;
14516;SDS011;7344;50.864;4.362;2022-10-15T04:34:38;20.53;;;16.60;;
14516;SDS011;7344;50.864;4.362;2022-10-15T04:37:03;18.37;;;15.63;;
14516;SDS011;7344;50.864;4.362;2022-10-15T04:39:29;19.37;;;15.03;;
14516;SDS011;7344;50.864;4.362;2022-10-15T04:41:55;18.80;;;15.27;;
14516;SDS011;7344;50.864;4.362;2022-10-15T04:44:20;19.53;;;14.37;;
14516;SDS011;7344;50.864;4.362;2022-10-15T04:46:46;17.97;;;15.23;;
14516;SDS011;7344;50.864;4.362;2022-10-15T04:49:11;16.37;;;14.00;;
14516;SDS011;7344;50.864;4.362;2022-10-15T04:51:37;16.93;;;13.50;;
14516;SDS011;7344;50.864;4.362;2022-10-15T04:54:03;19.57;;;15.20;;
14516;SDS011;7344;50.864;4.362;2022-10-15T04:56:29;16.70;;;12.80;;
14516;SDS011;7344;50.864;4.362;2022-10-15T04:58:54;15.53;;;12.87;;
14516;SDS011;7344;50.864;4.362;2022-10-15T05:01:20;15.67;;;12.97;;
14516;SDS011;7344;50.864;4.362;2022-10-15T05:03:46;16.00;;;13.00;;
14516;SDS011;7344;50.864;4.362;2022-10-15T05:06:17;16.23;;;12.87;;
14516;SDS011;7344;50.864;4.362;2022-10-15T05:08:44;14.97;;;12.50;;
14516;SDS011;7344;50.864;4.362;2022-10-15T05:11:17;13.23;;;11.70;;
14516;SDS011;7344;50.864;4.362;2022-10-15T05:13:44;13.93;;;11.27;;
14516;SDS011;7344;50.864;4.362;2022-10-15T05:16:16;12.57;;;11.23;;
14516;SDS011;7344;50.864;4.362;2022-10-15T05:18:47;14.43;;;10.83;;
14516;SDS011;7344;50.864;4.362;2022-10-15T05:21:14;12.60;;;10.97;;
14516;SDS011;7344;50.864;4.362;2022-10-15T05:23:41;12.10;;;10.90;;
14516;SDS011;7344;50.864;4.362;2022-10-15T05:26:11;11.77;;;10.43;;
14516;SDS011;7344;50.864;4.362;2022-10-15T05:28:38;13.07;;;10.50;;
14516;SDS011;7344;50.864;4.362;2022-10-15T05:31:08;11.20;;;10.00;;
14516;SDS011;7344;50.864;4.362;2022-10-15T05:33:35;13.33;;;11.20;;
14516;SDS011;7344;50.864;4.362;2022-10-15T05:36:11;11.03;;;9.53;;
14516;SDS011;7344;50.864;4.362;2022-10-15T05:38:37;11.50;;;9.97;;
14516;SDS011;7344;50.864;4.362;2022-10-15T05:41:03;10.67;;;9.57;;
14516;SDS011;7344;50.864;4.362;2022-10-15T05:43:29;10.87;;;8.97;;
14516;SDS011;7344;50.864;4.362;2022-10-15T05:45:55;10.23;;;8.70;;
14516;SDS011;7344;50.864;4.362;2022-10-15T05:48:21;9.90;;;8.67;;
14516;SDS011;7344;50.864;4.362;2022-10-15T05:50:46;11.60;;;8.80;;
14516;SDS011;7344;50.864;4.362;2022-10-15T05:53:12;10.10;;;8.90;;
14516;SDS011;7344;50.864;4.362;2022-10-15T05:55:38;12.13;;;9.00;;
14516;SDS011;7344;50.864;4.362;2022-10-15T05:58:03;9.47;;;8.47;;
14516;SDS011;7344;50.864;4.362;2022-10-15T06:00:29;9.47;;;7.67;;
14516;SDS011;7344;50.864;4.362;2022-10-15T06:02:55;10.27;;;8.53;;
14516;SDS011;7344;50.864;4.362;2022-10-15T06:05:21;8.30;;;7.50;;
14516;SDS011;7344;50.864;4.362;2022-10-15T06:07:47;8.30;;;7.50;;
14516;SDS011;7344;50.864;4.362;2022-10-15T06:10:12;8.07;;;7.27;;
14516;SDS011;7344;50.864;4.362;2022-10-15T06:12:38;9.83;;;7.23;;
14516;SDS011;7344;50.864;4.362;2022-10-15T06:15:04;9.77;;;7.30;;
14516;SDS011;7344;50.864;4.362;2022-10-15T06:17:30;8.63;;;7.03;;
14516;SDS011;7344;50.864;4.362;2022-10-15T06:19:56;8.13;;;7.10;;
14516;SDS011;7344;50.864;4.362;2022-10-15T06:22:22;8.20;;;7.40;;
14516;SDS011;7344;50.864;4.362;2022-10-15T06:24:47;7.37;;;6.67;;
14516;SDS011;7344;50.864;4.362;2022-10-15T06:27:13;7.70;;;6.90;;
14516;SDS011;7344;50.864;4.362;2022-10-15T06:29:38;8.03;;;6.70;;
14516;SDS011;7344;50.864;4.362;2022-10-15T06:32:08;9.90;;;6.97;;
14516;SDS011;7344;50.864;4.362;2022-10-15T06:34:34;8.80;;;6.93;;
14516;SDS011;7344;50.864;4.362;2022-10-15T06:37:00;9.63;;;7.97;;
14516;SDS011;7344;50.864;4.362;2022-10-15T06:39:26;9.03;;;7.07;;
14516;SDS011;7344;50.864;4.362;2022-10-15T06:41:51;7.60;;;6.80;;
14516;SDS011;7344;50.864;4.362;2022-10-15T06:44:17;8.17;;;6.87;;
14516;SDS011;7344;50.864;4.362;2022-10-15T06:46:43;7.40;;;6.67;;
14516;SDS011;7344;50.864;4.362;2022-10-15T06:49:08;7.73;;;6.70;;
14516;SDS011;7344;50.864;4.362;2022-10-15T06:51:34;7.30;;;6.60;;
14516;SDS011;7344;50.864;4.362;2022-10-15T06:54:01;7.03;;;6.33;;
14516;SDS011;7344;50.864;4.362;2022-10-15T06:56:28;7.77;;;6.97;;
14516;SDS011;7344;50.864;4.362;2022-10-15T06:58:53;7.67;;;6.47;;
14516;SDS011;7344;50.864;4.362;2022-10-15T07:01:19;8.30;;;6.80;;
14516;SDS011;7344;50.864;4.362;2022-10-15T07:03:47;8.80;;;6.83;;
14516;SDS011;7344;50.864;4.362;2022-10-15T07:06:15;8.67;;;6.43;;
14516;SDS011;7344;50.864;4.362;2022-10-15T07:08:41;7.20;;;6.50;;
14516;SDS011;7344;50.864;4.362;2022-10-15T07:11:07;7.67;;;6.87;;
14516;SDS011;7344;50.864;4.362;2022-10-15T07:13:33;7.40;;;6.70;;
14516;SDS011;7344;50.864;4.362;2022-10-15T07:16:05;7.43;;;6.70;;
14516;SDS011;7344;50.864;4.362;2022-10-15T07:18:33;6.80;;;6.20;;
14516;SDS011;7344;50.864;4.362;2022-10-15T07:20:59;7.53;;;6.33;;
14516;SDS011;7344;50.864;4.362;2022-10-15T07:23:26;7.87;;;5.97;;
14516;SDS011;7344;50.864;4.362;2022-10-15T07:25:52;6.87;;;5.90;;
14516;SDS011;7344;50.864;4.362;2022-10-15T07:28:18;6.33;;;5.73;;
14516;SDS011;7344;50.864;4.362;2022-10-15T07:30:43;6.00;;;5.40;;
14516;SDS011;7344;50.864;4.362;2022-10-15T07:33:09;5.93;;;5.43;;
14516;SDS011;7344;50.864;4.362;2022-10-15T07:35:35;5.57;;;5.03;;
14516;SDS011;7344;50.864;4.362;2022-10-15T07:38:02;5.50;;;5.00;;
14516;SDS011;7344;50.864;4.362;2022-10-15T07:40:28;5.00;;;4.60;;
14516;SDS011;7344;50.864;4.362;2022-10-15T07:42:54;5.77;;;5.27;;
14516;SDS011;7344;50.864;4.362;2022-10-15T07:45:21;5.50;;;5.00;;
14516;SDS011;7344;50.864;4.362;2022-10-15T07:47:47;4.80;;;4.40;;
14516;SDS011;7344;50.864;4.362;2022-10-15T07:50:13;5.53;;;5.03;;
14516;SDS011;7344;50.864;4.362;2022-10-15T07:52:38;5.00;;;4.53;;
14516;SDS011;7344;50.864;4.362;2022-10-15T07:55:04;5.13;;;4.67;;
14516;SDS011;7344;50.864;4.362;2022-10-15T07:57:30;4.60;;;4.03;;
14516;SDS011;7344;50.864;4.362;2022-10-15T07:59:55;5.33;;;3.87;;
14516;SDS011;7344;50.864;4.362;2022-10-15T08:02:21;5.67;;;3.80;;
14516;SDS011;7344;50.864;4.362;2022-10-15T08:04:47;4.73;;;4.33;;
14516;SDS011;7344;50.864;4.362;2022-10-15T08:07:12;3.80;;;3.50;;
14516;SDS011;7344;50.864;4.362;2022-10-15T08:09:38;3.87;;;3.57;;
14516;SDS011;7344;50.864;4.362;2022-10-15T08:12:04;4.70;;;3.50;;
14516;SDS011;7344;50.864;4.362;2022-10-15T08:14:31;4.17;;;3.13;;
14516;SDS011;7344;50.864;4.362;2022-10-15T08:16:57;3.30;;;3.00;;
14516;SDS011;7344;50.864;4.362;2022-10-15T08:19:23;3.37;;;3.13;;
14516;SDS011;7344;50.864;4.362;2022-10-15T08:21:48;3.10;;;2.90;;
14516;SDS011;7344;50.864;4.362;2022-10-15T08:24:14;3.80;;;2.47;;
14516;SDS011;7344;50.864;4.362;2022-10-15T08:26:40;3.03;;;2.80;;
14516;SDS011;7344;50.864;4.362;2022-10-15T08:29:05;3.10;;;2.70;;
14516;SDS011;7344;50.864;4.362;2022-10-15T08:31:31;2.70;;;2.33;;
14516;SDS011;7344;50.864;4.362;2022-10-15T08:34:03;2.60;;;2.40;;
14516;SDS011;7344;50.864;4.362;2022-10-15T08:36:29;4.07;;;2.23;;
14516;SDS011;7344;50.864;4.362;2022-10-15T08:38:55;2.10;;;1.90;;
14516;SDS011;7344;50.864;4.362;2022-10-15T08:44:21;1.77;;;1.60;;
14516;SDS011;7344;50.864;4.362;2022-10-15T08:46:52;1.70;;;1.60;;
14516;SDS011;7344;50.864;4.362;2022-10-15T08:52:18;2.03;;;1.50;;
14516;SDS011;7344;50.864;4.362;2022-10-15T08:55:03;1.33;;;1.23;;
14516;SDS011;7344;50.864;4.362;2022-10-15T09:00:16;4.53;;;2.33;;
14516;SDS011;7344;50.864;4.362;2022-10-15T09:02:53;1.50;;;1.40;;
14516;SDS011;7344;50.864;4.362;2022-10-15T09:08:27;1.13;;;1.13;;
14516;SDS011;7344;50.864;4.362;2022-10-15T09:14:17;1.00;;;1.00;;
14516;SDS011;7344;50.864;4.362;2022-10-15T09:16:49;2.50;;;1.25;;
14516;SDS011;7344;50.864;4.362;2022-10-15T09:19:16;1.30;;;1.20;;
14516;SDS011;7344;50.864;4.362;2022-10-15T09:21:44;2.42;;;1.10;;
14516;SDS011;7344;50.864;4.362;2022-10-15T09:24:21;1.30;;;1.20;;
14516;SDS011;7344;50.864;4.362;2022-10-15T09:26:53;1.83;;;1.43;;
14516;SDS011;7344;50.864;4.362;2022-10-15T09:32:57;1.57;;;1.30;;
14516;SDS011;7344;50.864;4.362;2022-10-15T09:35:39;1.50;;;1.40;;
14516;SDS011;7344;50.864;4.362;2022-10-15T09:44:09;1.50;;;1.37;;
14516;SDS011;7344;50.864;4.362;2022-10-15T09:46:42;1.40;;;1.30;;
14516;SDS011;7344;50.864;4.362;2022-10-15T09:49:10;1.80;;;1.70;;
14516;SDS011;7344;50.864;4.362;2022-10-15T09:57:01;1.60;;;1.20;;
14516;SDS011;7344;50.864;4.362;2022-10-15T09:59:26;1.60;;;1.40;;
14516;SDS011;7344;50.864;4.362;2022-10-15T10:02:02;1.17;;;1.17;;
14516;SDS011;7344;50.864;4.362;2022-10-15T10:04:41;1.92;;;1.30;;
14516;SDS011;7344;50.864;4.362;2022-10-15T10:07:07;1.13;;;1.05;;
14516;SDS011;7344;50.864;4.362;2022-10-15T10:09:51;1.40;;;1.30;;
14516;SDS011;7344;50.864;4.362;2022-10-15T10:12:21;1.70;;;1.60;;
14516;SDS011;7344;50.864;4.362;2022-10-15T10:17:33;2.85;;;1.75;;
14516;SDS011;7344;50.864;4.362;2022-10-15T10:22:45;2.55;;;1.80;;
14516;SDS011;7344;50.864;4.362;2022-10-15T10:30:38;2.33;;;2.03;;
14516;SDS011;7344;50.864;4.362;2022-10-15T10:33:40;1.55;;;1.45;;
14516;SDS011;7344;50.864;4.362;2022-10-15T10:36:06;1.70;;;1.60;;
14516;SDS011;7344;50.864;4.362;2022-10-15T10:38:42;1.90;;;1.80;;
14516;SDS011;7344;50.864;4.362;2022-10-15T10:41:20;1.90;;;1.80;;
14516;SDS011;7344;50.864;4.362;2022-10-15T10:43:53;2.13;;;1.90;;
14516;SDS011;7344;50.864;4.362;2022-10-15T10:46:20;2.30;;;1.73;;
14516;SDS011;7344;50.864;4.362;2022-10-15T10:48:52;1.90;;;1.80;;
14516;SDS011;7344;50.864;4.362;2022-10-15T10:51:22;1.90;;;1.80;;
14516;SDS011;7344;50.864;4.362;2022-10-15T10:54:10;1.65;;;1.55;;
14516;SDS011;7344;50.864;4.362;2022-10-15T10:56:39;2.00;;;1.85;;
14516;SDS011;7344;50.864;4.362;2022-10-15T10:59:17;2.20;;;1.95;;
14516;SDS011;7344;50.864;4.362;2022-10-15T11:01:45;3.45;;;2.03;;
14516;SDS011;7344;50.864;4.362;2022-10-15T11:04:33;2.45;;;1.80;;
14516;SDS011;7344;50.864;4.362;2022-10-15T11:12:34;4.82;;;1.65;;
14516;SDS011;7344;50.864;4.362;2022-10-15T11:15:44;3.28;;;2.08;;
14516;SDS011;7344;50.864;4.362;2022-10-15T11:24:27;1.52;;;1.42;;
14516;SDS011;7344;50.864;4.362;2022-10-15T11:27:48;1.70;;;1.60;;
14516;SDS011;7344;50.864;4.362;2022-10-15T11:30:04;2.90;;;1.60;;
14516;SDS011;7344;50.864;4.362;2022-10-15T11:32:48;2.33;;;1.70;;
14516;SDS011;7344;50.864;4.362;2022-10-15T11:40:45;1.90;;;1.80;;
14516;SDS011;7344;50.864;4.362;2022-10-15T11:46:26;2.05;;;1.95;;
14516;SDS011;7344;50.864;4.362;2022-10-15T11:54:35;1.83;;;1.58;;
14516;SDS011;7344;50.864;4.362;2022-10-15T11:57:05;1.55;;;1.52;;
14516;SDS011;7344;50.864;4.362;2022-10-15T11:59:36;1.73;;;1.50;;
14516;SDS011;7344;50.864;4.362;2022-10-15T12:02:12;4.15;;;1.60;;
14516;SDS011;7344;50.864;4.362;2022-10-15T12:04:49;1.58;;;1.30;;
14516;SDS011;7344;50.864;4.362;2022-10-15T12:07:21;1.38;;;1.30;;
14516;SDS011;7344;50.864;4.362;2022-10-15T12:09:50;1.45;;;1.10;;
14516;SDS011;7344;50.864;4.362;2022-10-15T12:17:54;1.80;;;1.50;;
14516;SDS011;7344;50.864;4.362;2022-10-15T12:20:23;1.40;;;1.30;;
14516;SDS011;7344;50.864;4.362;2022-10-15T12:30:40;1.27;;;1.00;;
14516;SDS011;7344;50.864;4.362;2022-10-15T12:33:22;0.93;;;0.93;;
14516;SDS011;7344;50.864;4.362;2022-10-15T12:35:57;1.20;;;1.10;;
14516;SDS011;7344;50.864;4.362;2022-10-15T12:38:36;2.60;;;0.82;;
14516;SDS011;7344;50.864;4.362;2022-10-15T12:41:05;0.85;;;0.70;;
14516;SDS011;7344;50.864;4.362;2022-10-15T12:43:43;2.92;;;0.98;;
14516;SDS011;7344;50.864;4.362;2022-10-15T12:46:17;0.82;;;0.68;;
14516;SDS011;7344;50.864;4.362;2022-10-15T12:48:44;1.20;;;0.85;;
14516;SDS011;7344;50.864;4.362;2022-10-15T12:53:49;1.17;;;1.05;;
14516;SDS011;7344;50.864;4.362;2022-10-15T12:58:55;2.85;;;1.20;;
14516;SDS011;7344;50.864;4.362;2022-10-15T13:08:48;0.90;;;0.90;;
14516;SDS011;7344;50.864;4.362;2022-10-15T13:11:53;1.02;;;0.85;;
14516;SDS011;7344;50.864;4.362;2022-10-15T13:16:53;1.48;;;0.88;;
14516;SDS011;7344;50.864;4.362;2022-10-15T13:19:21;1.77;;;0.82;;
14516;SDS011;7344;50.864;4.362;2022-10-15T13:21:58;1.02;;;0.80;;
14516;SDS011;7344;50.864;4.362;2022-10-15T13:24:25;1.00;;;0.80;;
14516;SDS011;7344;50.864;4.362;2022-10-15T13:26:53;1.50;;;0.90;;
14516;SDS011;7344;50.864;4.362;2022-10-15T13:29:22;1.65;;;1.00;;
14516;SDS011;7344;50.864;4.362;2022-10-15T13:31:49;2.25;;;1.00;;
14516;SDS011;7344;50.864;4.362;2022-10-15T13:36:45;1.92;;;1.15;;
14516;SDS011;7344;50.864;4.362;2022-10-15T13:39:25;1.20;;;1.10;;
14516;SDS011;7344;50.864;4.362;2022-10-15T13:44:41;2.83;;;1.10;;
14516;SDS011;7344;50.864;4.362;2022-10-15T13:50:09;1.33;;;1.10;;
14516;SDS011;7344;50.864;4.362;2022-10-15T13:52:43;2.22;;;1.10;;
14516;SDS011;7344;50.864;4.362;2022-10-15T13:55:22;4.07;;;1.40;;
14516;SDS011;7344;50.864;4.362;2022-10-15T13:57:49;1.73;;;1.27;;
14516;SDS011;7344;50.864;4.362;2022-10-15T14:00:22;4.60;;;1.13;;
14516;SDS011;7344;50.864;4.362;2022-10-15T14:03:11;3.20;;;1.25;;
14516;SDS011;7344;50.864;4.362;2022-10-15T14:05:41;3.38;;;1.10;;
14516;SDS011;7344;50.864;4.362;2022-10-15T14:08:32;1.33;;;1.10;;
14516;SDS011;7344;50.864;4.362;2022-10-15T14:10:59;1.65;;;1.30;;
14516;SDS011;7344;50.864;4.362;2022-10-15T14:13:25;4.47;;;1.35;;
14516;SDS011;7344;50.864;4.362;2022-10-15T14:15:58;4.88;;;1.30;;
14516;SDS011;7344;50.864;4.362;2022-10-15T14:18:40;2.63;;;1.30;;
14516;SDS011;7344;50.864;4.362;2022-10-15T14:21:13;1.65;;;1.15;;
14516;SDS011;7344;50.864;4.362;2022-10-15T14:23:42;1.60;;;1.13;;
14516;SDS011;7344;50.864;4.362;2022-10-15T14:26:10;3.97;;;1.50;;
14516;SDS011;7344;50.864;4.362;2022-10-15T14:28:37;3.65;;;1.30;;
14516;SDS011;7344;50.864;4.362;2022-10-15T14:31:04;2.55;;;1.20;;
14516;SDS011;7344;50.864;4.362;2022-10-15T14:36:06;4.60;;;1.45;;
14516;SDS011;7344;50.864;4.362;2022-10-15T14:38:36;2.92;;;1.20;;
14516;SDS011;7344;50.864;4.362;2022-10-15T14:41:04;2.42;;;1.10;;
14516;SDS011;7344;50.864;4.362;2022-10-15T14:44:14;2.35;;;1.23;;
14516;SDS011;7344;50.864;4.362;2022-10-15T14:46:46;1.90;;;1.10;;
14516;SDS011;7344;50.864;4.362;2022-10-15T14:49:28;1.98;;;1.33;;
14516;SDS011;7344;50.864;4.362;2022-10-15T14:52:00;4.93;;;1.30;;
14516;SDS011;7344;50.864;4.362;2022-10-15T14:54:31;2.53;;;0.90;;
14516;SDS011;7344;50.864;4.362;2022-10-15T14:57:00;3.20;;;1.17;;
14516;SDS011;7344;50.864;4.362;2022-10-15T14:59:28;4.13;;;1.40;;
14516;SDS011;7344;50.864;4.362;2022-10-15T15:01:57;2.38;;;1.42;;
14516;SDS011;7344;50.864;4.362;2022-10-15T15:04:31;2.97;;;1.15;;
14516;SDS011;7344;50.864;4.362;2022-10-15T15:06:57;2.83;;;1.30;;
14516;SDS011;7344;50.864;4.362;2022-10-15T15:09:22;3.58;;;1.55;;
14516;SDS011;7344;50.864;4.362;2022-10-15T15:11:48;5.43;;;1.50;;
14516;SDS011;7344;50.864;4.362;2022-10-15T15:14:23;3.33;;;1.15;;
14516;SDS011;7344;50.864;4.362;2022-10-15T15:16:49;3.15;;;1.25;;
14516;SDS011;7344;50.864;4.362;2022-10-15T15:19:15;2.25;;;1.30;;
14516;SDS011;7344;50.864;4.362;2022-10-15T15:21:41;4.25;;;1.42;;
14516;SDS011;7344;50.864;4.362;2022-10-15T15:24:08;4.20;;;1.40;;
14516;SDS011;7344;50.864;4.362;2022-10-15T15:26:35;3.13;;;1.17;;
14516;SDS011;7344;50.864;4.362;2022-10-15T15:29:01;1.60;;;1.30;;
14516;SDS011;7344;50.864;4.362;2022-10-15T15:31:26;2.70;;;1.15;;
14516;SDS011;7344;50.864;4.362;2022-10-15T15:33:53;4.97;;;1.40;;
14516;SDS011;7344;50.864;4.362;2022-10-15T15:36:19;2.90;;;1.27;;
14516;SDS011;7344;50.864;4.362;2022-10-15T15:38:44;4.40;;;1.70;;
14516;SDS011;7344;50.864;4.362;2022-10-15T15:41:17;2.28;;;1.65;;
14516;SDS011;7344;50.864;4.362;2022-10-15T15:43:44;1.73;;;1.20;;
14516;SDS011;7344;50.864;4.362;2022-10-15T15:46:10;2.50;;;1.52;;
14516;SDS011;7344;50.864;4.362;2022-10-15T15:48:36;3.75;;;1.42;;
14516;SDS011;7344;50.864;4.362;2022-10-15T15:51:04;3.55;;;1.15;;
14516;SDS011;7344;50.864;4.362;2022-10-15T15:53:36;1.73;;;1.38;;
14516;SDS011;7344;50.864;4.362;2022-10-15T15:56:01;3.78;;;1.25;;
14516;SDS011;7344;50.864;4.362;2022-10-15T15:58:27;3.03;;;1.30;;
14516;SDS011;7344;50.864;4.362;2022-10-15T16:00:53;4.13;;;1.90;;
14516;SDS011;7344;50.864;4.362;2022-10-15T16:03:18;7.82;;;3.17;;
14516;SDS011;7344;50.864;4.362;2022-10-15T16:05:44;5.35;;;1.50;;
14516;SDS011;7344;50.864;4.362;2022-10-15T16:08:10;4.57;;;1.55;;
14516;SDS011;7344;50.864;4.362;2022-10-15T16:10:37;2.72;;;1.30;;
14516;SDS011;7344;50.864;4.362;2022-10-15T16:13:02;3.35;;;1.52;;
14516;SDS011;7344;50.864;4.362;2022-10-15T16:15:28;4.10;;;1.67;;
14516;SDS011;7344;50.864;4.362;2022-10-15T16:17:53;4.10;;;1.67;;
14516;SDS011;7344;50.864;4.362;2022-10-15T16:20:19;3.10;;;1.60;;
14516;SDS011;7344;50.864;4.362;2022-10-15T16:22:49;5.22;;;1.80;;
14516;SDS011;7344;50.864;4.362;2022-10-15T16:25:15;5.18;;;1.60;;
14516;SDS011;7344;50.864;4.362;2022-10-15T16:27:41;4.43;;;1.67;;
14516;SDS011;7344;50.864;4.362;2022-10-15T16:30:09;3.67;;;1.80;;
14516;SDS011;7344;50.864;4.362;2022-10-15T16:32:35;3.53;;;1.55;;
14516;SDS011;7344;50.864;4.362;2022-10-15T16:35:01;6.35;;;1.83;;
14516;SDS011;7344;50.864;4.362;2022-10-15T16:37:27;5.80;;;2.00;;
14516;SDS011;7344;50.864;4.362;2022-10-15T16:39:52;4.35;;;1.90;;
14516;SDS011;7344;50.864;4.362;2022-10-15T16:42:18;6.57;;;2.05;;
14516;SDS011;7344;50.864;4.362;2022-10-15T16:44:43;3.88;;;1.77;;
14516;SDS011;7344;50.864;4.362;2022-10-15T16:47:09;4.10;;;1.58;;
14516;SDS011;7344;50.864;4.362;2022-10-15T16:49:34;5.80;;;2.45;;
14516;SDS011;7344;50.864;4.362;2022-10-15T16:52:00;5.88;;;3.00;;
14516;SDS011;7344;50.864;4.362;2022-10-15T16:54:26;3.88;;;1.80;;
14516;SDS011;7344;50.864;4.362;2022-10-15T16:56:51;5.38;;;2.20;;
14516;SDS011;7344;50.864;4.362;2022-10-15T16:59:17;4.97;;;2.30;;
14516;SDS011;7344;50.864;4.362;2022-10-15T17:01:44;4.68;;;2.05;;
14516;SDS011;7344;50.864;4.362;2022-10-15T17:04:09;2.70;;;1.80;;
14516;SDS011;7344;50.864;4.362;2022-10-15T17:06:35;4.85;;;1.90;;
14516;SDS011;7344;50.864;4.362;2022-10-15T17:09:01;4.40;;;1.83;;
14516;SDS011;7344;50.864;4.362;2022-10-15T17:11:33;2.00;;;1.80;;